Time;durP1;ratioP1;P1;durP2;ratioP2;P2;SDS_P1;SDS_P2;PMS_P1;PMS_P2;Temp;Humidity;BMP_temperature;BMP_pressure;BME280_temperature;BME280_humidity;BME280_pressure;Samples;Min_cycle;Max_cycle;Signal;HPM_P1;HPM_P2
2023/12/31 00:01:15;;;;;;;4.82;2.70;;;;;;;;;;5019582;28;20088;-77
2023/12/31 00:03:41;;;;;;;4.25;2.70;;;;;;;;;;5024558;28;20442;-78
2023/12/31 00:06:07;;;;;;;5.85;2.45;;;;;;;;;;5026029;28;20033;-78
2023/12/31 00:08:36;;;;;;;6.13;3.17;;;;;;;;;;5018300;28;20026;-78
2023/12/31 00:11:02;;;;;;;6.20;2.65;;;;;;;;;;5023267;28;20029;-78
2023/12/31 00:13:28;;;;;;;6.68;2.88;;;;;;;;;;5023230;28;20045;-78
2023/12/31 00:15:54;;;;;;;5.20;2.17;;;;;;;;;;5028432;28;20120;-78
2023/12/31 00:18:20;;;;;;;7.78;2.40;;;;;;;;;;5024416;28;20140;-78
2023/12/31 00:20:46;;;;;;;4.32;2.70;;;;;;;;;;5025810;28;20107;-78
2023/12/31 00:23:13;;;;;;;6.28;2.75;;;;;;;;;;5028644;28;20029;-78
2023/12/31 00:25:41;;;;;;;6.28;2.42;;;;;;;;;;5019405;28;20083;-78
2023/12/31 00:28:07;;;;;;;3.47;2.13;;;;;;;;;;5029030;28;20037;-78
2023/12/31 00:30:34;;;;;;;5.00;2.75;;;;;;;;;;5025071;28;20041;-78
2023/12/31 00:33:00;;;;;;;6.45;2.58;;;;;;;;;;5023234;28;20033;-78
2023/12/31 00:35:26;;;;;;;3.75;2.38;;;;;;;;;;5024804;28;20033;-78
2023/12/31 00:37:52;;;;;;;7.20;3.10;;;;;;;;;;5032106;28;20029;-76
2023/12/31 00:40:18;;;;;;;6.50;2.30;;;;;;;;;;5026709;28;20108;-78
2023/12/31 00:42:44;;;;;;;6.80;3.10;;;;;;;;;;5022332;28;20041;-78
2023/12/31 00:45:10;;;;;;;5.28;2.47;;;;;;;;;;5010436;28;20021;-77
2023/12/31 00:47:36;;;;;;;27.52;15.90;;;;;;;;;;5026361;28;20498;-76
2023/12/31 00:50:03;;;;;;;17.67;12.02;;;;;;;;;;5027389;28;20033;-77
2023/12/31 00:52:29;;;;;;;3.70;2.65;;;;;;;;;;5027279;28;20022;-77
2023/12/31 00:54:55;;;;;;;4.45;2.30;;;;;;;;;;5027615;28;20478;-79
2023/12/31 00:57:21;;;;;;;6.20;3.13;;;;;;;;;;5016098;28;20041;-79
2023/12/31 00:59:47;;;;;;;3.47;2.38;;;;;;;;;;5017609;28;20033;-80
2023/12/31 01:02:13;;;;;;;5.57;2.35;;;;;;;;;;5026795;28;20093;-79
2023/12/31 01:04:39;;;;;;;3.97;1.95;;;;;;;;;;5026081;28;20025;-79
2023/12/31 01:07:06;;;;;;;6.63;2.70;;;;;;;;;;5026526;28;20528;-79
2023/12/31 01:09:32;;;;;;;4.30;2.17;;;;;;;;;;5034505;28;20041;-79
2023/12/31 01:11:58;;;;;;;4.18;2.05;;;;;;;;;;5025701;28;20025;-78
2023/12/31 01:14:24;;;;;;;3.38;1.95;;;;;;;;;;5019985;28;20026;-78
2023/12/31 01:16:50;;;;;;;5.15;2.03;;;;;;;;;;5029084;28;20105;-78
2023/12/31 01:19:17;;;;;;;4.93;2.30;;;;;;;;;;5018675;28;20037;-77
2023/12/31 01:21:43;;;;;;;4.15;2.05;;;;;;;;;;5027588;28;20060;-79
2023/12/31 01:24:09;;;;;;;4.68;1.92;;;;;;;;;;5028081;28;20029;-77
2023/12/31 01:26:35;;;;;;;3.53;2.05;;;;;;;;;;5026951;28;20030;-78
2023/12/31 01:29:01;;;;;;;4.07;2.30;;;;;;;;;;5017751;28;20041;-78
2023/12/31 01:31:27;;;;;;;3.05;2.13;;;;;;;;;;5026381;28;20036;-78
2023/12/31 01:33:53;;;;;;;3.92;2.13;;;;;;;;;;5027929;28;20418;-78
2023/12/31 01:36:24;;;;;;;3.70;2.60;;;;;;;;;;5028999;28;20544;-79
2023/12/31 01:38:50;;;;;;;3.42;1.30;;;;;;;;;;5026156;28;20108;-78
2023/12/31 01:41:16;;;;;;;4.32;1.90;;;;;;;;;;5025929;28;20033;-78
2023/12/31 01:43:42;;;;;;;3.72;1.65;;;;;;;;;;5014521;28;20125;-78
2023/12/31 01:46:10;;;;;;;2.08;1.25;;;;;;;;;;5028521;28;20035;-78
2023/12/31 01:48:36;;;;;;;4.53;1.80;;;;;;;;;;5026812;28;20475;-78
2023/12/31 01:51:03;;;;;;;4.78;1.77;;;;;;;;;;5028625;28;20501;-78
2023/12/31 01:53:29;;;;;;;2.75;1.50;;;;;;;;;;5025210;28;20091;-77
2023/12/31 01:55:57;;;;;;;2.28;1.27;;;;;;;;;;5027150;28;20581;-78
2023/12/31 01:58:23;;;;;;;1.90;1.30;;;;;;;;;;5025931;28;20524;-78
2023/12/31 02:00:49;;;;;;;2.47;1.48;;;;;;;;;;5025058;28;20475;-77
2023/12/31 02:03:16;;;;;;;4.88;1.80;;;;;;;;;;5026983;28;20454;-78
2023/12/31 02:05:42;;;;;;;5.63;2.15;;;;;;;;;;5023251;28;20030;-78
2023/12/31 02:08:08;;;;;;;2.47;1.52;;;;;;;;;;5027874;28;20112;-77
2023/12/31 02:10:34;;;;;;;6.47;1.70;;;;;;;;;;5025646;28;20033;-78
2023/12/31 02:13:01;;;;;;;5.55;1.88;;;;;;;;;;5030476;28;20026;-77
2023/12/31 02:15:34;;;;;;;3.28;1.45;;;;;;;;;;5031260;28;20094;-77
2023/12/31 02:18:00;;;;;;;4.18;1.35;;;;;;;;;;5027771;28;20068;-77
2023/12/31 02:20:27;;;;;;;1.55;1.20;;;;;;;;;;5022366;28;20540;-77
2023/12/31 02:22:53;;;;;;;2.90;1.35;;;;;;;;;;5030770;28;20061;-77
2023/12/31 02:25:23;;;;;;;1.90;1.25;;;;;;;;;;5027262;28;20040;-77
2023/12/31 02:27:49;;;;;;;1.63;1.30;;;;;;;;;;5030086;28;20037;-77
2023/12/31 02:30:15;;;;;;;4.20;1.48;;;;;;;;;;5029459;28;20056;-77
2023/12/31 02:32:41;;;;;;;5.30;1.67;;;;;;;;;;5032407;28;20036;-77
2023/12/31 02:35:07;;;;;;;6.60;1.27;;;;;;;;;;5029212;28;20041;-76
2023/12/31 02:37:33;;;;;;;16.40;1.50;;;;;;;;;;5034212;28;20030;-76
2023/12/31 02:39:59;;;;;;;4.47;2.20;;;;;;;;;;5028745;28;20025;-77
2023/12/31 02:42:25;;;;;;;3.38;1.30;;;;;;;;;;5028432;28;20105;-77
2023/12/31 02:44:51;;;;;;;3.85;1.67;;;;;;;;;;5031560;28;20056;-77
2023/12/31 02:47:17;;;;;;;6.32;1.40;;;;;;;;;;5026482;28;20061;-76
2023/12/31 02:49:43;;;;;;;1.05;0.77;;;;;;;;;;5029244;28;20471;-77
2023/12/31 02:52:11;;;;;;;2.17;1.00;;;;;;;;;;5029215;28;20430;-76
2023/12/31 02:54:37;;;;;;;1.30;0.85;;;;;;;;;;5031613;28;20075;-76
2023/12/31 02:57:07;;;;;;;2.35;0.95;;;;;;;;;;5025027;28;20033;-76
2023/12/31 02:59:33;;;;;;;4.65;1.08;;;;;;;;;;5019735;28;20025;-77
2023/12/31 03:01:59;;;;;;;2.63;0.90;;;;;;;;;;5022752;28;20029;-77
2023/12/31 03:04:25;;;;;;;1.60;1.10;;;;;;;;;;5031192;28;20493;-78
2023/12/31 03:06:51;;;;;;;4.82;1.58;;;;;;;;;;5024278;28;20033;-77
2023/12/31 03:09:21;;;;;;;3.70;1.00;;;;;;;;;;5011613;28;20026;-77
2023/12/31 03:11:48;;;;;;;1.27;0.95;;;;;;;;;;5034067;28;20034;-77
2023/12/31 03:14:14;;;;;;;1.80;1.13;;;;;;;;;;5029187;28;20375;-77
2023/12/31 03:16:44;;;;;;;1.08;0.80;;;;;;;;;;5028115;28;20113;-77
2023/12/31 03:19:11;;;;;;;1.55;0.73;;;;;;;;;;5024008;28;20036;-77
2023/12/31 03:21:37;;;;;;;1.95;1.00;;;;;;;;;;5028479;28;20041;-76
2023/12/31 03:24:04;;;;;;;2.28;1.10;;;;;;;;;;5029409;28;20092;-77
2023/12/31 03:26:30;;;;;;;1.92;0.80;;;;;;;;;;5027627;28;20034;-77
2023/12/31 03:28:56;;;;;;;2.58;0.60;;;;;;;;;;5020524;28;20100;-77
2023/12/31 03:31:22;;;;;;;6.38;1.30;;;;;;;;;;5014076;28;20038;-77
2023/12/31 03:33:49;;;;;;;1.48;0.70;;;;;;;;;;5013919;28;20038;-76
2023/12/31 03:36:15;;;;;;;1.65;0.80;;;;;;;;;;5045096;28;20053;-77
2023/12/31 03:38:41;;;;;;;3.33;0.98;;;;;;;;;;5018560;28;20117;-76
2023/12/31 03:41:07;;;;;;;3.33;1.65;;;;;;;;;;5025879;28;20128;-77
2023/12/31 03:43:33;;;;;;;2.85;0.85;;;;;;;;;;5019190;28;20037;-77
2023/12/31 03:45:59;;;;;;;2.08;0.98;;;;;;;;;;5030618;28;20041;-76
2023/12/31 03:48:25;;;;;;;2.50;0.77;;;;;;;;;;5021541;28;20391;-76
2023/12/31 03:50:51;;;;;;;2.53;0.90;;;;;;;;;;5021565;28;20025;-77
2023/12/31 03:53:17;;;;;;;2.75;1.40;;;;;;;;;;5026889;28;20029;-77
2023/12/31 03:55:43;;;;;;;2.78;1.17;;;;;;;;;;5030719;28;20040;-77
2023/12/31 03:58:09;;;;;;;2.28;1.23;;;;;;;;;;5028893;28;20036;-76
2023/12/31 04:00:35;;;;;;;1.55;1.05;;;;;;;;;;5013953;28;20057;-77
2023/12/31 04:03:02;;;;;;;2.17;1.10;;;;;;;;;;5027560;28;20038;-77
2023/12/31 04:05:29;;;;;;;0.95;0.85;;;;;;;;;;5027113;28;20029;-77
2023/12/31 04:07:55;;;;;;;2.95;1.13;;;;;;;;;;5030180;28;20013;-77
2023/12/31 04:10:22;;;;;;;1.40;1.02;;;;;;;;;;5012131;28;20049;-79
2023/12/31 04:12:47;;;;;;;3.60;1.17;;;;;;;;;;5010419;28;20030;-77
2023/12/31 04:15:14;;;;;;;4.28;1.40;;;;;;;;;;5018247;28;20949;-76
2023/12/31 04:17:40;;;;;;;2.78;1.10;;;;;;;;;;5027005;28;20033;-76
2023/12/31 04:20:06;;;;;;;3.25;1.30;;;;;;;;;;5014343;28;20494;-79
2023/12/31 04:22:32;;;;;;;1.98;1.10;;;;;;;;;;5024814;28;20113;-79
2023/12/31 04:24:58;;;;;;;2.13;1.58;;;;;;;;;;5026150;28;20108;-79
2023/12/31 04:27:25;;;;;;;4.85;1.52;;;;;;;;;;5010391;28;20037;-78
2023/12/31 04:29:51;;;;;;;4.03;1.30;;;;;;;;;;5021073;28;20049;-78
2023/12/31 04:32:17;;;;;;;4.57;2.05;;;;;;;;;;5028003;28;20075;-78
2023/12/31 04:34:43;;;;;;;7.18;1.67;;;;;;;;;;5027923;28;20036;-78
2023/12/31 04:37:09;;;;;;;8.35;1.45;;;;;;;;;;5021156;28;20022;-77
2023/12/31 04:39:35;;;;;;;3.55;1.50;;;;;;;;;;5021870;28;20553;-77
2023/12/31 04:42:01;;;;;;;1.88;1.30;;;;;;;;;;5029360;28;20140;-77
2023/12/31 04:44:28;;;;;;;3.70;1.27;;;;;;;;;;5023774;28;20032;-77
2023/12/31 04:46:54;;;;;;;7.15;1.90;;;;;;;;;;5028261;28;20415;-77
2023/12/31 04:49:20;;;;;;;4.15;1.98;;;;;;;;;;5022815;28;20087;-77
2023/12/31 04:51:46;;;;;;;3.90;2.13;;;;;;;;;;5010861;28;20038;-77
2023/12/31 04:54:12;;;;;;;3.70;1.80;;;;;;;;;;5039123;28;20030;-77
2023/12/31 04:56:38;;;;;;;4.30;2.05;;;;;;;;;;5027926;28;20394;-77
2023/12/31 04:59:04;;;;;;;4.57;1.85;;;;;;;;;;5027534;28;20390;-76
2023/12/31 05:01:33;;;;;;;4.22;1.85;;;;;;;;;;5027645;28;20026;-77
2023/12/31 05:04:00;;;;;;;4.22;1.70;;;;;;;;;;5027875;28;20064;-77
2023/12/31 05:06:26;;;;;;;2.92;1.38;;;;;;;;;;5017609;28;20041;-78
2023/12/31 05:08:52;;;;;;;2.53;1.48;;;;;;;;;;5024566;28;20087;-77
2023/12/31 05:11:19;;;;;;;4.97;1.95;;;;;;;;;;5020370;28;20025;-77
2023/12/31 05:13:45;;;;;;;1.33;1.23;;;;;;;;;;5025566;28;20057;-78
2023/12/31 05:16:15;;;;;;;2.70;1.50;;;;;;;;;;5027386;28;20064;-77
2023/12/31 05:18:50;;;;;;;2.85;1.50;;;;;;;;;;5019921;28;20113;-77
2023/12/31 05:21:16;;;;;;;6.15;1.67;;;;;;;;;;5015447;28;20057;-77
2023/12/31 05:23:42;;;;;;;2.42;1.42;;;;;;;;;;5029885;28;20095;-76
2023/12/31 05:26:08;;;;;;;2.63;1.40;;;;;;;;;;5027174;28;20095;-77
2023/12/31 05:28:34;;;;;;;5.93;1.90;;;;;;;;;;5026397;28;20462;-77
2023/12/31 05:31:00;;;;;;;2.97;1.58;;;;;;;;;;5017659;28;20367;-77
2023/12/31 05:33:26;;;;;;;3.47;1.83;;;;;;;;;;5009216;28;20022;-77
2023/12/31 05:35:52;;;;;;;4.18;1.50;;;;;;;;;;5009845;28;20125;-76
2023/12/31 05:38:19;;;;;;;3.35;1.48;;;;;;;;;;5026642;28;20109;-77
2023/12/31 05:40:45;;;;;;;5.20;2.20;;;;;;;;;;5027812;28;20033;-77
2023/12/31 05:43:11;;;;;;;2.40;1.33;;;;;;;;;;5026537;28;20053;-77
2023/12/31 05:45:37;;;;;;;1.90;1.10;;;;;;;;;;5030798;28;20033;-78
2023/12/31 05:48:04;;;;;;;2.67;1.50;;;;;;;;;;5030256;28;20056;-77
2023/12/31 05:50:30;;;;;;;4.05;1.40;;;;;;;;;;5031986;28;20052;-77
2023/12/31 05:52:56;;;;;;;2.00;1.17;;;;;;;;;;5024263;28;20037;-78
2023/12/31 05:55:22;;;;;;;4.45;1.85;;;;;;;;;;5012926;28;20033;-77
2023/12/31 05:57:48;;;;;;;5.63;1.40;;;;;;;;;;5014192;28;20151;-77
2023/12/31 06:00:14;;;;;;;4.00;1.65;;;;;;;;;;5013905;28;20026;-77
2023/12/31 06:02:40;;;;;;;2.72;1.70;;;;;;;;;;5025962;28;20022;-77
2023/12/31 06:05:07;;;;;;;2.65;1.40;;;;;;;;;;5026472;28;20029;-77
2023/12/31 06:07:33;;;;;;;3.25;1.73;;;;;;;;;;5014474;28;20030;-78
2023/12/31 06:09:59;;;;;;;2.78;1.70;;;;;;;;;;5012787;28;20139;-77
2023/12/31 06:12:25;;;;;;;2.25;1.40;;;;;;;;;;5013645;28;20026;-77
2023/12/31 06:14:51;;;;;;;4.97;1.70;;;;;;;;;;5012767;28;20026;-78
2023/12/31 06:17:18;;;;;;;4.80;1.90;;;;;;;;;;5023058;28;20029;-77
2023/12/31 06:19:44;;;;;;;2.85;1.88;;;;;;;;;;5031102;28;20017;-77
2023/12/31 06:22:11;;;;;;;2.42;1.65;;;;;;;;;;5029788;28;20441;-77
2023/12/31 06:24:37;;;;;;;3.55;1.85;;;;;;;;;;5027857;28;20144;-77
2023/12/31 06:27:03;;;;;;;2.78;1.98;;;;;;;;;;5029760;28;20124;-77
2023/12/31 06:29:32;;;;;;;4.30;2.20;;;;;;;;;;5028934;28;20136;-77
2023/12/31 06:31:58;;;;;;;3.40;1.98;;;;;;;;;;5030810;28;20601;-77
2023/12/31 06:34:24;;;;;;;6.47;2.30;;;;;;;;;;5030503;28;20044;-77
2023/12/31 06:36:50;;;;;;;5.95;2.85;;;;;;;;;;5029193;28;20021;-77
2023/12/31 06:39:16;;;;;;;3.97;2.35;;;;;;;;;;5022895;28;20032;-77
2023/12/31 06:41:42;;;;;;;5.50;2.53;;;;;;;;;;5031902;28;20029;-78
2023/12/31 06:44:08;;;;;;;8.05;1.95;;;;;;;;;;5030644;28;20565;-77
2023/12/31 06:46:34;;;;;;;7.75;2.10;;;;;;;;;;5030380;28;20107;-77
2023/12/31 06:49:01;;;;;;;3.05;2.17;;;;;;;;;;5029676;28;20057;-76
2023/12/31 06:51:27;;;;;;;3.35;2.17;;;;;;;;;;5027113;28;20094;-77
2023/12/31 06:53:53;;;;;;;3.40;2.28;;;;;;;;;;5029263;28;20458;-77
2023/12/31 06:56:19;;;;;;;7.65;2.13;;;;;;;;;;5031501;28;20030;-76
2023/12/31 06:58:45;;;;;;;3.42;2.05;;;;;;;;;;5030124;28;20030;-77
2023/12/31 07:01:13;;;;;;;3.08;1.60;;;;;;;;;;5023276;28;20039;-76
2023/12/31 07:03:39;;;;;;;4.13;1.60;;;;;;;;;;5031776;28;20026;-77
2023/12/31 07:06:07;;;;;;;3.33;1.70;;;;;;;;;;5029527;28;20028;-77
2023/12/31 07:08:33;;;;;;;4.07;1.90;;;;;;;;;;5029539;28;20034;-77
2023/12/31 07:10:59;;;;;;;3.10;1.52;;;;;;;;;;5025229;28;20128;-77
2023/12/31 07:13:25;;;;;;;1.70;1.60;;;;;;;;;;5027537;28;20113;-77
2023/12/31 07:15:51;;;;;;;2.88;1.55;;;;;;;;;;5027301;28;20463;-76
2023/12/31 07:18:20;;;;;;;3.85;1.55;;;;;;;;;;5016400;28;20037;-77
2023/12/31 07:20:46;;;;;;;3.60;1.63;;;;;;;;;;5025478;28;20076;-78
2023/12/31 07:23:12;;;;;;;1.88;1.20;;;;;;;;;;5023154;28;20049;-78
2023/12/31 07:25:38;;;;;;;4.05;1.70;;;;;;;;;;5030593;28;20456;-78
2023/12/31 07:28:04;;;;;;;2.40;1.60;;;;;;;;;;5027828;28;20080;-75
2023/12/31 07:30:30;;;;;;;4.47;2.67;;;;;;;;;;5032994;28;20517;-76
2023/12/31 07:32:56;;;;;;;5.22;3.33;;;;;;;;;;5024823;28;20052;-74
2023/12/31 07:35:22;;;;;;;4.47;1.60;;;;;;;;;;5026075;28;20136;-79
2023/12/31 07:37:48;;;;;;;1.80;1.50;;;;;;;;;;5022560;28;20049;-78
2023/12/31 07:40:16;;;;;;;2.78;1.35;;;;;;;;;;5028271;28;20037;-79
2023/12/31 07:42:42;;;;;;;1.98;1.42;;;;;;;;;;5038049;28;20029;-83
2023/12/31 07:45:08;;;;;;;3.97;1.63;;;;;;;;;;5018512;28;20150;-78
2023/12/31 07:47:35;;;;;;;2.45;1.58;;;;;;;;;;5029752;28;20034;-79
2023/12/31 07:50:04;;;;;;;2.10;1.90;;;;;;;;;;5027005;28;20060;-80
2023/12/31 07:52:30;;;;;;;1.73;1.20;;;;;;;;;;5026168;28;20053;-79
2023/12/31 07:54:56;;;;;;;2.65;1.67;;;;;;;;;;5029819;28;20047;-78
2023/12/31 07:57:22;;;;;;;3.40;1.60;;;;;;;;;;5016330;28;20558;-80
2023/12/31 07:59:48;;;;;;;4.97;2.03;;;;;;;;;;5030586;28;20220;-79
2023/12/31 08:02:14;;;;;;;3.08;1.80;;;;;;;;;;5029350;28;20040;-80
2023/12/31 08:04:41;;;;;;;3.65;1.95;;;;;;;;;;5029787;28;20521;-78
2023/12/31 08:07:07;;;;;;;4.97;1.75;;;;;;;;;;5018075;28;20060;-79
2023/12/31 08:09:34;;;;;;;5.18;1.80;;;;;;;;;;5028746;28;20029;-79
2023/12/31 08:12:00;;;;;;;6.07;2.30;;;;;;;;;;5030168;28;20427;-80
2023/12/31 08:14:26;;;;;;;3.05;1.75;;;;;;;;;;5025508;28;20013;-79
2023/12/31 08:16:52;;;;;;;2.78;1.80;;;;;;;;;;5023282;28;20454;-79
2023/12/31 08:19:18;;;;;;;5.05;2.75;;;;;;;;;;5021744;28;20792;-78
2023/12/31 08:21:45;;;;;;;8.27;2.30;;;;;;;;;;5029856;28;20057;-80
2023/12/31 08:24:14;;;;;;;10.18;6.75;;;;;;;;;;5027827;28;20471;-77
2023/12/31 08:26:40;;;;;;;3.22;1.85;;;;;;;;;;5024922;28;20060;-77
2023/12/31 08:29:07;;;;;;;2.72;1.70;;;;;;;;;;5029052;28;20103;-79
2023/12/31 08:31:33;;;;;;;4.53;2.00;;;;;;;;;;5023618;28;20045;-78
2023/12/31 08:33:59;;;;;;;3.55;2.08;;;;;;;;;;5025638;28;20034;-77
2023/12/31 08:36:25;;;;;;;4.22;2.08;;;;;;;;;;5026512;28;20068;-76
2023/12/31 08:38:51;;;;;;;2.72;1.90;;;;;;;;;;5026712;28;20056;-77
2023/12/31 08:41:17;;;;;;;5.28;2.25;;;;;;;;;;5029572;28;20410;-76
2023/12/31 08:43:44;;;;;;;4.10;1.85;;;;;;;;;;5027155;28;20018;-77
2023/12/31 08:46:10;;;;;;;3.85;2.20;;;;;;;;;;5018915;28;20021;-75
2023/12/31 08:48:36;;;;;;;3.30;1.77;;;;;;;;;;5018906;28;20032;-76
2023/12/31 08:51:02;;;;;;;4.25;2.25;;;;;;;;;;5025867;28;20041;-75
2023/12/31 08:53:29;;;;;;;3.22;1.95;;;;;;;;;;5022330;28;20029;-76
2023/12/31 08:55:55;;;;;;;2.00;1.80;;;;;;;;;;5027228;28;20104;-75
2023/12/31 08:58:21;;;;;;;5.28;2.22;;;;;;;;;;5027808;28;20037;-76
2023/12/31 09:00:47;;;;;;;3.83;2.10;;;;;;;;;;5017144;28;20045;-76
2023/12/31 09:03:13;;;;;;;3.55;1.90;;;;;;;;;;5013698;28;20499;-78
2023/12/31 09:05:39;;;;;;;4.55;2.15;;;;;;;;;;5022873;28;20064;-76
2023/12/31 09:08:05;;;;;;;6.03;2.03;;;;;;;;;;5020565;28;20037;-76
2023/12/31 09:10:31;;;;;;;3.65;2.00;;;;;;;;;;5024141;28;20057;-76
2023/12/31 09:12:57;;;;;;;5.07;2.30;;;;;;;;;;5022700;28;20541;-78
2023/12/31 09:15:24;;;;;;;4.85;2.17;;;;;;;;;;5020264;28;20029;-75
2023/12/31 09:17:50;;;;;;;23.05;13.80;;;;;;;;;;5027566;28;20025;-77
2023/12/31 09:20:16;;;;;;;2.10;1.85;;;;;;;;;;5016008;28;20056;-76
2023/12/31 09:22:44;;;;;;;2.78;2.03;;;;;;;;;;5018486;28;20033;-76
2023/12/31 09:25:10;;;;;;;3.08;2.20;;;;;;;;;;5012933;28;20037;-77
2023/12/31 09:27:36;;;;;;;4.25;2.17;;;;;;;;;;5020294;28;20081;-76
2023/12/31 09:30:02;;;;;;;4.50;2.20;;;;;;;;;;5022167;28;20819;-76
2023/12/31 09:32:29;;;;;;;3.08;2.00;;;;;;;;;;5024050;28;20046;-75
2023/12/31 09:34:55;;;;;;;5.22;2.78;;;;;;;;;;5028261;28;20023;-76
2023/12/31 09:37:21;;;;;;;5.63;2.17;;;;;;;;;;5024247;28;20570;-77
2023/12/31 09:39:50;;;;;;;4.43;2.10;;;;;;;;;;5025120;28;20026;-76
2023/12/31 09:42:19;;;;;;;3.08;2.47;;;;;;;;;;5028648;28;20025;-77
2023/12/31 09:44:47;;;;;;;4.28;2.10;;;;;;;;;;5019028;28;20527;-77
2023/12/31 09:47:14;;;;;;;3.53;2.70;;;;;;;;;;5014986;28;20344;-74
2023/12/31 09:49:40;;;;;;;4.20;2.60;;;;;;;;;;5027605;28;20026;-74
2023/12/31 09:52:10;;;;;;;3.10;2.50;;;;;;;;;;5025785;28;20042;-76
2023/12/31 09:54:38;;;;;;;4.85;2.47;;;;;;;;;;5028578;28;20116;-76
2023/12/31 09:57:05;;;;;;;5.30;2.70;;;;;;;;;;5025153;28;20372;-73
2023/12/31 09:59:31;;;;;;;4.78;2.90;;;;;;;;;;5009671;28;20080;-74
2023/12/31 10:02:07;;;;;;;4.05;3.30;;;;;;;;;;5019369;28;20084;-76
2023/12/31 10:04:33;;;;;;;5.35;3.08;;;;;;;;;;5023240;28;20032;-74
2023/12/31 10:07:00;;;;;;;4.43;2.95;;;;;;;;;;5016134;28;20695;-76
2023/12/31 10:09:32;;;;;;;5.05;3.25;;;;;;;;;;5008107;28;20034;-78
2023/12/31 10:11:58;;;;;;;5.70;3.28;;;;;;;;;;5020186;28;20041;-78
2023/12/31 10:14:27;;;;;;;4.68;3.03;;;;;;;;;;5033468;28;20085;-77
2023/12/31 10:16:56;;;;;;;6.28;3.88;;;;;;;;;;5013573;28;20641;-77
2023/12/31 10:19:21;;;;;;;5.03;3.15;;;;;;;;;;5024517;28;20136;-76
2023/12/31 10:21:48;;;;;;;22.92;13.38;;;;;;;;;;5024417;28;20056;-74
2023/12/31 10:24:14;;;;;;;4.80;3.13;;;;;;;;;;5026471;28;20044;-74
2023/12/31 10:26:40;;;;;;;4.00;3.22;;;;;;;;;;5027111;28;20103;-74
2023/12/31 10:29:06;;;;;;;7.22;3.42;;;;;;;;;;5014700;28;20057;-74
2023/12/31 10:31:33;;;;;;;6.05;2.75;;;;;;;;;;5020666;28;20090;-74
2023/12/31 10:34:17;;;;;;;5.07;3.03;;;;;;;;;;5024869;28;20450;-75
2023/12/31 10:36:47;;;;;;;5.45;2.70;;;;;;;;;;5015977;28;20026;-75
2023/12/31 10:39:27;;;;;;;4.18;2.90;;;;;;;;;;5029614;28;20087;-75
2023/12/31 10:41:55;;;;;;;4.93;3.60;;;;;;;;;;5018953;28;20120;-75
2023/12/31 10:44:22;;;;;;;4.00;2.83;;;;;;;;;;5031096;28;20609;-75
2023/12/31 10:46:49;;;;;;;5.50;3.38;;;;;;;;;;5020155;28;20075;-76
2023/12/31 10:49:16;;;;;;;4.90;3.05;;;;;;;;;;5023630;28;20022;-76
2023/12/31 10:51:44;;;;;;;4.82;3.47;;;;;;;;;;5028421;28;20026;-76
2023/12/31 10:54:15;;;;;;;4.43;3.00;;;;;;;;;;5023582;28;20079;-75
2023/12/31 10:56:42;;;;;;;6.93;3.28;;;;;;;;;;5032059;28;20025;-76
2023/12/31 10:59:10;;;;;;;4.72;2.97;;;;;;;;;;5022945;28;20522;-74
2023/12/31 11:01:37;;;;;;;8.20;5.68;;;;;;;;;;5024280;28;20148;-76
2023/12/31 11:04:05;;;;;;;6.90;4.70;;;;;;;;;;5030306;28;20029;-75
2023/12/31 11:06:31;;;;;;;5.35;2.53;;;;;;;;;;5029196;28;20041;-76
2023/12/31 11:12:01;;;;;;;5.15;1.77;;;;;;;;;;5028719;28;20052;-75
2023/12/31 11:14:31;;;;;;;2.58;1.25;;;;;;;;;;5026679;28;20078;-77
2023/12/31 11:17:06;;;;;;;3.50;0.98;;;;;;;;;;5030725;28;20160;-74
2023/12/31 11:19:56;;;;;;;6.07;1.10;;;;;;;;;;5020344;28;20021;-76
2023/12/31 11:22:41;;;;;;;1.95;0.82;;;;;;;;;;5027686;28;20106;-75
2023/12/31 11:25:07;;;;;;;1.83;0.70;;;;;;;;;;5030174;28;20044;-75
2023/12/31 11:27:35;;;;;;;1.67;0.77;;;;;;;;;;5012424;28;20030;-76
2023/12/31 11:30:02;;;;;;;1.35;0.85;;;;;;;;;;5010653;28;20432;-75
2023/12/31 11:32:29;;;;;;;3.13;0.90;;;;;;;;;;5029427;28;20021;-75
2023/12/31 11:34:55;;;;;;;1.85;0.93;;;;;;;;;;5021742;28;20567;-76
2023/12/31 11:37:22;;;;;;;2.47;0.80;;;;;;;;;;5031393;28;20033;-76
2023/12/31 11:39:49;;;;;;;4.10;1.10;;;;;;;;;;5030171;28;20112;-75
2023/12/31 11:42:18;;;;;;;5.72;1.63;;;;;;;;;;5030392;28;20033;-76
2023/12/31 11:44:45;;;;;;;3.30;1.20;;;;;;;;;;5028001;28;20021;-76
2023/12/31 11:47:12;;;;;;;1.17;0.68;;;;;;;;;;5029346;28;20060;-75
2023/12/31 11:49:52;;;;;;;4.88;1.10;;;;;;;;;;5029499;28;20064;-76
2023/12/31 11:52:22;;;;;;;4.15;1.20;;;;;;;;;;5009776;28;20038;-75
2023/12/31 11:54:51;;;;;;;4.45;1.95;;;;;;;;;;5010077;28;20030;-77
2023/12/31 11:57:21;;;;;;;3.70;0.90;;;;;;;;;;5014024;28;20056;-76
2023/12/31 11:59:47;;;;;;;2.63;1.40;;;;;;;;;;5035766;28;20029;-76
2023/12/31 12:02:14;;;;;;;1.10;0.80;;;;;;;;;;5029270;28;20080;-79
2023/12/31 12:04:40;;;;;;;3.30;0.68;;;;;;;;;;5028228;28;20032;-77
2023/12/31 12:07:06;;;;;;;0.88;0.55;;;;;;;;;;5030542;28;20029;-76
2023/12/31 12:09:33;;;;;;;1.38;0.80;;;;;;;;;;5010620;28;20029;-76
2023/12/31 12:12:00;;;;;;;1.20;0.60;;;;;;;;;;5026289;28;20101;-76
2023/12/31 12:14:26;;;;;;;2.33;1.08;;;;;;;;;;5029283;28;20367;-77
2023/12/31 12:16:53;;;;;;;1.05;0.60;;;;;;;;;;5029348;28;20057;-78
2023/12/31 12:19:20;;;;;;;3.08;0.70;;;;;;;;;;5022179;28;20376;-76
2023/12/31 12:21:46;;;;;;;1.20;0.80;;;;;;;;;;5030250;28;20226;-75
2023/12/31 12:24:12;;;;;;;6.55;3.83;;;;;;;;;;5030719;28;20029;-76
2023/12/31 12:26:38;;;;;;;24.42;13.32;;;;;;;;;;5020860;28;20017;-75
2023/12/31 12:29:04;;;;;;;4.43;1.52;;;;;;;;;;5010150;28;20061;-76
2023/12/31 12:31:36;;;;;;;3.72;1.20;;;;;;;;;;5027710;28;20029;-77
2023/12/31 12:34:06;;;;;;;4.45;1.67;;;;;;;;;;5025367;28;20037;-77
2023/12/31 12:36:32;;;;;;;4.10;1.33;;;;;;;;;;5027155;28;20391;-77
2023/12/31 12:39:05;;;;;;;1.80;1.00;;;;;;;;;;5024984;28;20025;-77
2023/12/31 12:41:36;;;;;;;3.67;0.90;;;;;;;;;;5020113;28;20030;-77
2023/12/31 12:44:09;;;;;;;2.60;1.10;;;;;;;;;;5020578;28;20041;-78
2023/12/31 12:46:36;;;;;;;6.40;1.58;;;;;;;;;;5030867;28;20478;-77
2023/12/31 12:49:03;;;;;;;4.13;1.50;;;;;;;;;;5021777;28;20503;-77
2023/12/31 12:51:30;;;;;;;1.27;1.00;;;;;;;;;;5021644;28;20045;-77
2023/12/31 12:54:03;;;;;;;1.98;1.23;;;;;;;;;;5044799;28;20057;-77
2023/12/31 12:56:29;;;;;;;2.53;1.58;;;;;;;;;;5027883;28;20095;-76
2023/12/31 12:58:55;;;;;;;4.10;1.15;;;;;;;;;;5029200;28;20029;-76
2023/12/31 13:01:21;;;;;;;2.65;1.00;;;;;;;;;;5026655;28;20032;-76
2023/12/31 13:03:47;;;;;;;3.80;1.50;;;;;;;;;;5025671;28;20045;-76
2023/12/31 13:06:14;;;;;;;5.00;2.10;;;;;;;;;;5018379;28;20052;-76
2023/12/31 13:08:40;;;;;;;15.63;7.43;;;;;;;;;;5017576;28;20037;-75
2023/12/31 13:11:06;;;;;;;10.60;3.38;;;;;;;;;;5022684;28;20902;-75
2023/12/31 13:13:32;;;;;;;6.70;1.33;;;;;;;;;;5026907;28;20037;-74
2023/12/31 13:15:58;;;;;;;5.68;1.00;;;;;;;;;;5018930;28;20030;-76
2023/12/31 13:18:28;;;;;;;8.07;1.98;;;;;;;;;;5022780;28;20033;-76
2023/12/31 13:20:56;;;;;;;8.02;2.90;;;;;;;;;;5015345;28;20093;-76
2023/12/31 13:23:25;;;;;;;4.85;1.20;;;;;;;;;;5028494;28;20022;-76
2023/12/31 13:25:51;;;;;;;9.35;1.63;;;;;;;;;;5032848;28;20036;-76
2023/12/31 13:28:18;;;;;;;7.00;1.70;;;;;;;;;;5025978;28;20059;-76
2023/12/31 13:30:44;;;;;;;8.75;2.13;;;;;;;;;;5029075;28;20040;-76
2023/12/31 13:33:11;;;;;;;8.77;2.38;;;;;;;;;;5026894;28;20025;-75
2023/12/31 13:35:37;;;;;;;13.38;2.72;;;;;;;;;;5024115;28;20109;-76
2023/12/31 13:38:03;;;;;;;6.25;2.25;;;;;;;;;;5011671;28;20096;-76
2023/12/31 13:40:29;;;;;;;9.48;1.63;;;;;;;;;;5028969;28;20052;-76
2023/12/31 13:42:57;;;;;;;13.27;2.25;;;;;;;;;;5027940;28;20523;-75
2023/12/31 13:45:23;;;;;;;3.45;0.82;;;;;;;;;;5013942;28;20030;-76
2023/12/31 13:47:49;;;;;;;6.85;1.23;;;;;;;;;;5027264;28;20451;-76
2023/12/31 13:50:16;;;;;;;6.38;1.17;;;;;;;;;;5026862;28;20378;-76
2023/12/31 13:52:42;;;;;;;6.78;1.17;;;;;;;;;;5029361;28;20036;-76
2023/12/31 13:55:09;;;;;;;5.35;1.08;;;;;;;;;;5027626;28;20061;-77
2023/12/31 13:57:35;;;;;;;8.57;1.48;;;;;;;;;;5022759;28;20088;-77
2023/12/31 14:00:01;;;;;;;3.97;1.00;;;;;;;;;;5020815;28;20097;-77
2023/12/31 14:02:27;;;;;;;4.95;1.40;;;;;;;;;;5028134;28;20044;-76
2023/12/31 14:04:55;;;;;;;7.18;1.42;;;;;;;;;;5026528;28;20391;-77
2023/12/31 14:07:21;;;;;;;8.88;1.83;;;;;;;;;;5035522;28;20108;-77
2023/12/31 14:09:49;;;;;;;7.55;2.05;;;;;;;;;;5015354;28;20072;-77
2023/12/31 14:12:24;;;;;;;8.45;1.88;;;;;;;;;;5019572;28;20045;-75
2023/12/31 14:14:50;;;;;;;5.63;1.40;;;;;;;;;;5026739;28;20076;-75
2023/12/31 14:17:17;;;;;;;4.63;1.10;;;;;;;;;;5021559;28;20029;-75
2023/12/31 14:19:44;;;;;;;7.45;2.10;;;;;;;;;;5027448;28;20041;-76
2023/12/31 14:22:10;;;;;;;5.15;1.88;;;;;;;;;;5026248;28;20037;-76
2023/12/31 14:24:36;;;;;;;12.00;1.98;;;;;;;;;;5014783;28;20029;-76
2023/12/31 14:27:03;;;;;;;9.95;2.30;;;;;;;;;;5028823;28;20025;-76
2023/12/31 14:29:29;;;;;;;6.90;2.03;;;;;;;;;;5027452;28;20587;-76
2023/12/31 14:31:56;;;;;;;7.32;1.98;;;;;;;;;;5022770;28;20395;-77
2023/12/31 14:34:23;;;;;;;7.88;1.73;;;;;;;;;;5024425;28;20030;-77
2023/12/31 14:36:50;;;;;;;8.38;1.75;;;;;;;;;;5025036;28;20053;-76
2023/12/31 14:39:18;;;;;;;9.45;1.88;;;;;;;;;;5029662;28;20018;-76
2023/12/31 14:41:45;;;;;;;9.27;1.90;;;;;;;;;;5022101;28;20534;-76
2023/12/31 14:44:12;;;;;;;13.95;6.18;;;;;;;;;;5028436;28;20036;-76